createdAt,value
2017-11-20T00:00:20.028Z,0
2017-11-20T00:01:19.986Z,0
2017-11-20T00:02:19.988Z,0
2017-11-20T00:03:19.983Z,0
2017-11-20T00:04:19.969Z,0
2017-11-20T00:05:19.933Z,0
2017-11-20T00:06:19.928Z,0
2017-11-20T00:07:19.916Z,0
2017-11-20T00:08:19.881Z,0
2017-11-20T00:09:19.873Z,0
2017-11-20T00:10:19.610Z,0
2017-11-20T00:11:19.846Z,0
2017-11-20T00:12:19.573Z,0
2017-11-20T00:13:19.822Z,0
2017-11-20T00:14:19.811Z,0
2017-11-20T00:15:19.788Z,0
2017-11-20T00:16:19.782Z,0
2017-11-20T00:17:19.761Z,0
2017-11-20T00:18:19.751Z,0
2017-11-20T00:19:19.724Z,0
2017-11-20T00:20:19.446Z,0
2017-11-20T00:21:19.700Z,0
2017-11-20T00:22:19.685Z,0
2017-11-20T00:23:19.679Z,0
2017-11-20T00:24:19.650Z,0
2017-11-20T00:25:19.645Z,0
2017-11-20T00:26:19.657Z,0
2017-11-20T00:27:19.608Z,0
2017-11-20T00:28:19.612Z,0
2017-11-20T00:29:19.577Z,0
2017-11-20T00:30:19.561Z,0
2017-11-20T00:31:19.290Z,0
2017-11-20T00:32:19.579Z,0
2017-11-20T00:33:19.531Z,0
2017-11-20T00:34:19.247Z,0
2017-11-20T00:35:19.503Z,0
2017-11-20T00:36:19.470Z,0
2017-11-20T00:37:19.454Z,0
2017-11-20T00:38:19.440Z,0
2017-11-20T00:39:19.177Z,0
2017-11-20T00:40:19.159Z,0
2017-11-20T00:41:19.398Z,0
2017-11-20T00:42:19.384Z,0
2017-11-20T00:43:19.367Z,0
2017-11-20T00:44:19.396Z,0
2017-11-20T00:45:19.342Z,0
2017-11-20T00:46:19.321Z,0
2017-11-20T00:47:19.314Z,0
2017-11-20T00:48:19.298Z,0
2017-11-20T00:49:19.027Z,0
2017-11-20T00:50:19.266Z,0
2017-11-20T00:51:19.248Z,0
2017-11-20T00:52:19.235Z,0
2017-11-20T00:53:19.221Z,0
2017-11-20T00:54:19.199Z,0
2017-11-20T00:55:19.187Z,0
2017-11-20T00:56:19.200Z,0
2017-11-20T00:57:19.192Z,0
2017-11-20T00:58:19.151Z,0
2017-11-20T00:59:19.126Z,0
2017-11-20T01:00:19.123Z,0
2017-11-20T01:01:19.111Z,0
2017-11-20T01:02:19.092Z,0
2017-11-20T01:03:19.068Z,0
2017-11-20T01:04:19.057Z,0
2017-11-20T01:05:19.044Z,0
2017-11-20T01:06:19.020Z,0
2017-11-20T01:07:19.003Z,0
2017-11-20T01:08:18.994Z,0
2017-11-20T01:09:18.976Z,0
2017-11-20T01:10:18.963Z,0
2017-11-20T01:11:18.958Z,0
2017-11-20T01:12:18.936Z,0
2017-11-20T01:13:18.930Z,0
2017-11-20T01:14:18.907Z,0
2017-11-20T01:15:18.920Z,0
2017-11-20T01:16:18.870Z,0
2017-11-20T01:17:18.860Z,0
2017-11-20T01:18:18.589Z,0
2017-11-20T01:19:18.839Z,0
2017-11-20T01:20:18.826Z,0
2017-11-20T01:21:18.817Z,0
2017-11-20T01:22:18.776Z,0
2017-11-20T01:23:18.239Z,0
2017-11-20T01:24:18.755Z,0
2017-11-20T01:25:18.731Z,0
2017-11-20T01:26:18.719Z,0
2017-11-20T01:27:18.445Z,0
2017-11-20T01:28:18.691Z,0
2017-11-20T01:29:18.674Z,0
2017-11-20T01:30:18.678Z,0
2017-11-20T01:31:18.651Z,0
2017-11-20T01:32:18.631Z,0
2017-11-20T01:33:18.617Z,0
2017-11-20T01:34:18.601Z,0
2017-11-20T01:35:18.588Z,0
2017-11-20T01:36:18.581Z,0
2017-11-20T01:37:18.580Z,0
2017-11-20T01:38:18.537Z,0
2017-11-20T01:39:18.521Z,0
2017-11-20T01:40:18.518Z,0
2017-11-20T01:41:18.497Z,0
2017-11-20T01:42:18.477Z,0
2017-11-20T01:43:18.468Z,0
2017-11-20T01:44:18.199Z,0
2017-11-20T01:45:18.453Z,0
2017-11-20T01:46:18.420Z,0
2017-11-20T01:47:18.403Z,0
2017-11-20T01:48:18.386Z,0
2017-11-20T01:49:18.376Z,0
2017-11-20T01:50:18.108Z,0
2017-11-20T01:51:18.333Z,0
2017-11-20T01:52:18.319Z,0
2017-11-20T01:53:18.314Z,0
2017-11-20T01:54:18.291Z,0
2017-11-20T01:55:18.280Z,0
2017-11-20T01:56:18.262Z,0
2017-11-20T01:57:18.262Z,0
2017-11-20T01:58:17.983Z,0
2017-11-20T01:59:18.219Z,0
2017-11-20T02:00:18.202Z,0
2017-11-20T02:01:18.202Z,0
2017-11-20T02:02:18.194Z,0
2017-11-20T02:03:18.175Z,0
2017-11-20T02:04:18.155Z,0
2017-11-20T02:05:18.129Z,0
2017-11-20T02:06:18.114Z,0
2017-11-20T02:07:17.853Z,0
2017-11-20T02:08:18.077Z,0
2017-11-20T02:09:17.806Z,0
2017-11-20T02:10:18.049Z,0
2017-11-20T02:11:18.044Z,0
2017-11-20T02:12:17.759Z,0
2017-11-20T02:13:18.001Z,0
2017-11-20T02:14:18.003Z,0
2017-11-20T02:15:17.976Z,0
2017-11-20T02:16:18.259Z,0
2017-11-20T02:17:17.947Z,0
2017-11-20T02:18:17.923Z,0
2017-11-20T02:19:17.910Z,0
2017-11-20T02:20:17.899Z,0
2017-11-20T02:21:17.884Z,0
2017-11-20T02:22:17.865Z,0
2017-11-20T02:23:17.862Z,0
2017-11-20T02:24:17.844Z,0
2017-11-20T02:25:17.824Z,0
2017-11-20T02:26:17.817Z,0
2017-11-20T02:27:17.787Z,0
2017-11-20T02:28:17.774Z,0
2017-11-20T02:29:17.777Z,0
2017-11-20T02:30:17.765Z,0
2017-11-20T02:31:17.735Z,0
2017-11-20T02:32:17.732Z,0
2017-11-20T02:33:17.696Z,0
2017-11-20T02:34:17.425Z,0
2017-11-20T02:35:17.678Z,0
2017-11-20T02:36:17.660Z,0
2017-11-20T02:37:17.652Z,0
2017-11-20T02:38:17.360Z,0
2017-11-20T02:39:17.617Z,0
2017-11-20T02:40:17.348Z,0
2017-11-20T02:41:17.572Z,0
2017-11-20T02:42:17.565Z,0
2017-11-20T02:43:17.553Z,0
2017-11-20T02:44:17.533Z,0
2017-11-20T02:45:17.512Z,0
2017-11-20T02:46:17.495Z,0
2017-11-20T02:47:17.478Z,0
2017-11-20T02:48:17.213Z,0
2017-11-20T02:49:17.443Z,0
2017-11-20T02:50:17.440Z,0
2017-11-20T02:51:17.428Z,0
2017-11-20T02:52:17.425Z,0
2017-11-20T02:53:17.385Z,0
2017-11-20T02:54:17.127Z,0
2017-11-20T02:55:17.381Z,0
2017-11-20T02:56:17.341Z,0
2017-11-20T02:57:17.320Z,0
2017-11-20T02:58:17.311Z,0
2017-11-20T02:59:17.296Z,0
2017-11-20T03:00:17.285Z,0
2017-11-20T03:01:17.258Z,0
2017-11-20T03:02:17.248Z,0
2017-11-20T03:03:17.449Z,0
2017-11-20T03:04:17.215Z,0
2017-11-20T03:05:17.192Z,0
2017-11-20T03:06:17.195Z,4
2017-11-20T03:07:17.175Z,4
2017-11-20T03:08:17.151Z,4
2017-11-20T03:09:17.157Z,4
2017-11-20T03:10:16.860Z,4
2017-11-20T03:11:17.110Z,4
2017-11-20T03:12:16.826Z,0
2017-11-20T03:13:16.817Z,0
2017-11-20T03:14:16.801Z,0
2017-11-20T03:15:17.039Z,0
2017-11-20T03:16:17.040Z,0
2017-11-20T03:17:16.763Z,0
2017-11-20T03:18:17.000Z,0
2017-11-20T03:19:16.719Z,0
2017-11-20T03:20:16.709Z,0
2017-11-20T03:21:16.948Z,0
2017-11-20T03:22:16.936Z,0
2017-11-20T03:23:16.920Z,0
2017-11-20T03:24:16.640Z,0
2017-11-20T03:25:16.891Z,0
2017-11-20T03:26:16.609Z,0
2017-11-20T03:27:16.876Z,0
2017-11-20T03:28:16.834Z,0
2017-11-20T03:29:16.824Z,0
2017-11-20T03:30:16.827Z,0
2017-11-20T03:31:16.811Z,0
2017-11-20T03:32:16.777Z,0
2017-11-20T03:33:16.770Z,0
2017-11-20T03:34:16.745Z,0
2017-11-20T03:35:16.736Z,0
2017-11-20T03:36:16.722Z,0
2017-11-20T03:37:16.703Z,0
2017-11-20T03:38:16.695Z,0
2017-11-20T03:39:16.668Z,0
2017-11-20T03:40:16.647Z,0
2017-11-20T03:41:16.634Z,0
2017-11-20T03:42:16.621Z,0
2017-11-20T03:43:16.609Z,0
2017-11-20T03:44:16.604Z,0
2017-11-20T03:45:16.578Z,0
2017-11-20T03:46:16.558Z,0
2017-11-20T03:47:16.539Z,0
2017-11-20T03:48:16.523Z,0
2017-11-20T03:49:16.511Z,0
2017-11-20T03:50:16.238Z,0
2017-11-20T03:51:16.502Z,0
2017-11-20T03:52:16.469Z,0
2017-11-20T03:53:16.448Z,0
2017-11-20T03:54:16.449Z,0
2017-11-20T03:55:16.430Z,0
2017-11-20T03:56:16.403Z,0
2017-11-20T03:57:16.397Z,0
2017-11-20T03:58:16.375Z,0
2017-11-20T03:59:16.371Z,0
2017-11-20T04:00:16.347Z,0
2017-11-20T04:01:16.326Z,0
2017-11-20T04:02:16.316Z,0
2017-11-20T04:03:16.307Z,0
2017-11-20T04:04:16.279Z,0
2017-11-20T04:05:16.261Z,0
2017-11-20T04:06:16.275Z,0
2017-11-20T04:07:16.239Z,0
2017-11-20T04:08:16.220Z,0
2017-11-20T04:09:16.211Z,0
2017-11-20T04:10:16.210Z,0
2017-11-20T04:11:16.177Z,0
2017-11-20T04:12:16.161Z,0
2017-11-20T04:13:16.144Z,0
2017-11-20T04:14:16.136Z,0
2017-11-20T04:15:15.856Z,0
2017-11-20T04:16:16.101Z,0
2017-11-20T04:17:16.099Z,0
2017-11-20T04:18:16.079Z,0
2017-11-20T04:19:16.057Z,0
2017-11-20T04:20:16.056Z,0
2017-11-20T04:21:15.517Z,0
2017-11-20T04:22:16.024Z,0
2017-11-20T04:23:15.755Z,0
2017-11-20T04:24:15.994Z,0
2017-11-20T04:25:15.717Z,0
2017-11-20T04:26:15.705Z,0
2017-11-20T04:27:15.946Z,0
2017-11-20T04:28:15.937Z,0
2017-11-20T04:29:15.661Z,0
2017-11-20T04:30:15.651Z,0
2017-11-20T04:31:15.646Z,0
2017-11-20T04:32:15.616Z,0
2017-11-20T04:33:15.871Z,0
2017-11-20T04:34:15.855Z,0
2017-11-20T04:35:15.854Z,0
2017-11-20T04:36:15.824Z,0
2017-11-20T04:37:15.809Z,0
2017-11-20T04:38:15.791Z,0
2017-11-20T04:39:15.512Z,0
2017-11-20T04:40:15.806Z,0
2017-11-20T04:41:15.760Z,0
2017-11-20T04:42:15.741Z,0
2017-11-20T04:43:15.736Z,0
2017-11-20T04:44:15.451Z,0
2017-11-20T04:45:15.714Z,0
2017-11-20T04:46:15.705Z,0
2017-11-20T04:47:15.410Z,0
2017-11-20T04:48:15.419Z,0
2017-11-20T04:49:15.380Z,0
2017-11-20T04:50:15.630Z,0
2017-11-20T04:51:15.625Z,0
2017-11-20T04:52:15.596Z,0
2017-11-20T04:53:15.591Z,0
2017-11-20T04:54:15.605Z,0
2017-11-20T04:55:15.562Z,0
2017-11-20T04:56:15.553Z,0
2017-11-20T04:57:15.785Z,0
2017-11-20T04:58:15.534Z,0
2017-11-20T04:59:15.511Z,0
2017-11-20T05:00:15.503Z,0
2017-11-20T05:01:15.227Z,0
2017-11-20T05:02:15.472Z,0
2017-11-20T05:03:15.470Z,0
2017-11-20T05:04:15.442Z,0
2017-11-20T05:05:15.434Z,0
2017-11-20T05:06:15.157Z,0
2017-11-20T05:07:15.412Z,0
2017-11-20T05:08:15.130Z,0
2017-11-20T05:09:15.379Z,0
2017-11-20T05:10:15.370Z,0
2017-11-20T05:11:15.356Z,0
2017-11-20T05:12:15.335Z,0
2017-11-20T05:13:15.342Z,0
2017-11-20T05:14:15.314Z,0
2017-11-20T05:15:15.293Z,0
2017-11-20T05:16:15.286Z,0
2017-11-20T05:17:15.274Z,0
2017-11-20T05:18:15.267Z,0
2017-11-20T05:19:15.264Z,0
2017-11-20T05:20:14.983Z,0
2017-11-20T05:21:14.970Z,0
2017-11-20T05:22:14.689Z,0
2017-11-20T05:23:14.935Z,0
2017-11-20T05:24:14.933Z,0
2017-11-20T05:25:15.173Z,0
2017-11-20T05:26:15.156Z,0
2017-11-20T05:27:15.160Z,0
2017-11-20T05:28:15.133Z,0
2017-11-20T05:29:15.120Z,0
2017-11-20T05:30:15.118Z,0
2017-11-20T05:31:15.106Z,0
2017-11-20T05:32:14.824Z,0
2017-11-20T05:33:15.070Z,0
2017-11-20T05:34:15.055Z,0
2017-11-20T05:35:15.052Z,0
2017-11-20T05:36:15.029Z,0
2017-11-20T05:37:15.020Z,0
2017-11-20T05:38:15.010Z,0
2017-11-20T05:39:14.732Z,0
2017-11-20T05:40:14.983Z,0
2017-11-20T05:41:14.966Z,0
2017-11-20T05:42:14.949Z,0
2017-11-20T05:43:14.936Z,0
2017-11-20T05:44:14.936Z,0
2017-11-20T05:45:14.913Z,0
2017-11-20T05:46:14.904Z,0
2017-11-20T05:47:14.890Z,0
2017-11-20T05:48:14.877Z,0
2017-11-20T05:49:14.861Z,0
2017-11-20T05:50:14.858Z,0
2017-11-20T05:51:14.852Z,0
2017-11-20T05:52:14.818Z,0
2017-11-20T05:53:14.816Z,0
2017-11-20T05:54:14.793Z,0
2017-11-20T05:55:14.792Z,0
2017-11-20T05:56:14.802Z,0
2017-11-20T05:57:14.762Z,0
2017-11-20T05:58:14.752Z,4
2017-11-20T05:59:14.476Z,4
2017-11-20T06:00:14.464Z,0
2017-11-20T06:01:14.718Z,4
2017-11-20T06:02:14.695Z,4
2017-11-20T06:03:14.691Z,8
2017-11-20T06:04:14.681Z,4
2017-11-20T06:05:14.408Z,4
2017-11-20T06:06:14.652Z,4
2017-11-20T06:07:14.639Z,4
2017-11-20T06:08:14.358Z,8
2017-11-20T06:09:14.613Z,8
2017-11-20T06:10:14.586Z,12
2017-11-20T06:11:14.582Z,12
2017-11-20T06:12:14.310Z,12
2017-11-20T06:13:14.566Z,16
2017-11-20T06:14:14.294Z,16
2017-11-20T06:15:14.528Z,24
2017-11-20T06:16:14.261Z,20
2017-11-20T06:17:14.499Z,24
2017-11-20T06:18:14.509Z,32
2017-11-20T06:19:14.218Z,32
2017-11-20T06:20:14.209Z,40
2017-11-20T06:21:14.194Z,44
2017-11-20T06:22:14.441Z,48
2017-11-20T06:23:14.421Z,48
2017-11-20T06:24:14.430Z,68
2017-11-20T06:25:14.151Z,88
2017-11-20T06:26:14.138Z,96
2017-11-20T06:27:14.373Z,120
2017-11-20T06:28:14.124Z,120
2017-11-20T06:29:14.360Z,128
2017-11-20T06:30:14.339Z,148
2017-11-20T06:31:14.325Z,176
2017-11-20T06:32:14.315Z,184
2017-11-20T06:33:14.310Z,208
2017-11-20T06:34:14.296Z,248
2017-11-20T06:35:14.292Z,284
2017-11-20T06:36:14.273Z,308
2017-11-20T06:37:14.258Z,312
2017-11-20T06:38:14.244Z,292
2017-11-20T06:39:13.963Z,288
2017-11-20T06:40:14.277Z,344
2017-11-20T06:41:14.193Z,396
2017-11-20T06:42:14.183Z,472
2017-11-20T06:43:14.169Z,512
2017-11-20T06:44:14.179Z,512
2017-11-20T06:45:14.147Z,568
2017-11-20T06:46:14.140Z,580
2017-11-20T06:47:14.125Z,584
2017-11-20T06:48:14.124Z,604
2017-11-20T06:49:13.856Z,600
2017-11-20T06:50:14.095Z,648
2017-11-20T06:51:13.573Z,768
2017-11-20T06:52:14.066Z,868
2017-11-20T06:53:14.044Z,912
2017-11-20T06:54:14.039Z,1016
2017-11-20T06:55:14.027Z,1120
2017-11-20T06:56:13.499Z,1128
2017-11-20T06:57:14.003Z,1172
2017-11-20T06:58:14.421Z,1116
2017-11-20T06:59:13.972Z,984
2017-11-20T07:00:13.969Z,1120
2017-11-20T07:01:13.700Z,1396
2017-11-20T07:02:13.933Z,1584
2017-11-20T07:03:13.934Z,1512
2017-11-20T07:04:13.920Z,1496
2017-11-20T07:05:13.904Z,1428
2017-11-20T07:06:13.631Z,1244
2017-11-20T07:07:13.896Z,1040
2017-11-20T07:08:14.595Z,1136
2017-11-20T07:09:13.891Z,1308
2017-11-20T07:10:14.110Z,1372
2017-11-20T07:11:13.831Z,1608
2017-11-20T07:12:13.838Z,1448
2017-11-20T07:13:13.805Z,1232
2017-11-20T07:14:13.838Z,1440
2017-11-20T07:15:13.796Z,1752
2017-11-20T07:16:13.810Z,1988
2017-11-20T07:17:13.753Z,1776
2017-11-20T07:18:13.496Z,1876
2017-11-20T07:19:13.796Z,1904
2017-11-20T07:20:13.820Z,1788
2017-11-20T07:21:13.810Z,2164
2017-11-20T07:22:13.744Z,2344
2017-11-20T07:23:13.704Z,2564
2017-11-20T07:24:13.512Z,2336
2017-11-20T07:25:13.720Z,2312
2017-11-20T07:26:13.450Z,2420
2017-11-20T07:27:13.391Z,2636
2017-11-20T07:28:13.651Z,2808
2017-11-20T07:29:13.628Z,3024
2017-11-20T07:30:13.367Z,3176
2017-11-20T07:31:13.619Z,3384
2017-11-20T07:32:13.347Z,3508
2017-11-20T07:33:13.594Z,3348
2017-11-20T07:34:13.299Z,3468
2017-11-20T07:35:13.638Z,3580
2017-11-20T07:36:13.317Z,3824
2017-11-20T07:37:13.606Z,3964
2017-11-20T07:38:13.527Z,4096
2017-11-20T07:39:13.539Z,4472
2017-11-20T07:40:13.483Z,3684
2017-11-20T07:41:13.483Z,3972
2017-11-20T07:42:13.202Z,4064
2017-11-20T07:43:13.448Z,4532
2017-11-20T07:44:13.431Z,4728
2017-11-20T07:45:13.436Z,3928
2017-11-20T07:46:13.172Z,4020
2017-11-20T07:47:13.411Z,4112
2017-11-20T07:48:13.434Z,3920
2017-11-20T07:49:13.382Z,3884
2017-11-20T07:50:13.429Z,3736
2017-11-20T07:51:13.362Z,3640
2017-11-20T07:52:13.888Z,3716
2017-11-20T07:53:13.353Z,3676
2017-11-20T07:54:13.057Z,3728
2017-11-20T07:55:13.355Z,3888
2017-11-20T07:56:13.312Z,4276
2017-11-20T07:57:13.297Z,3648
2017-11-20T07:58:13.336Z,3524
2017-11-20T07:59:13.317Z,3404
2017-11-20T08:00:13.313Z,3620
2017-11-20T08:01:13.463Z,3608
2017-11-20T08:02:13.232Z,3596
2017-11-20T08:03:13.219Z,3804
2017-11-20T08:04:13.206Z,4120
2017-11-20T08:05:12.933Z,4064
2017-11-20T08:06:13.184Z,4200
2017-11-20T08:07:13.176Z,4452
2017-11-20T08:08:13.166Z,4420
2017-11-20T08:09:13.164Z,4392
2017-11-20T08:10:13.133Z,4932
2017-11-20T08:11:13.121Z,5324
2017-11-20T08:12:13.110Z,5788
2017-11-20T08:13:13.115Z,5280
2017-11-20T08:14:13.082Z,5460
2017-11-20T08:15:12.810Z,5324
2017-11-20T08:16:13.068Z,4600
2017-11-20T08:17:12.872Z,4420
2017-11-20T08:18:13.092Z,4628
2017-11-20T08:19:13.030Z,4400
2017-11-20T08:20:13.029Z,4464
2017-11-20T08:21:13.012Z,4700
2017-11-20T08:22:12.482Z,6204
2017-11-20T08:23:12.984Z,5796
2017-11-20T08:24:13.025Z,4636
2017-11-20T08:25:12.966Z,4972
2017-11-20T08:26:12.952Z,5064
2017-11-20T08:27:12.943Z,4728
2017-11-20T08:28:12.929Z,4512
2017-11-20T08:29:12.654Z,4472
2017-11-20T08:30:12.392Z,4336
2017-11-20T08:31:12.903Z,4260
2017-11-20T08:32:12.649Z,4180
2017-11-20T08:33:12.860Z,4224
2017-11-20T08:34:12.881Z,4264
2017-11-20T08:35:12.843Z,4264
2017-11-20T08:36:12.568Z,4280
2017-11-20T08:37:12.821Z,4204
2017-11-20T08:38:12.544Z,4340
2017-11-20T08:39:12.791Z,4656
2017-11-20T08:40:12.801Z,4604
2017-11-20T08:41:12.812Z,4988
2017-11-20T08:42:13.077Z,4632
2017-11-20T08:43:12.803Z,4516
2017-11-20T08:44:12.765Z,4592
2017-11-20T08:45:12.837Z,4680
2017-11-20T08:46:12.512Z,4896
2017-11-20T08:47:12.737Z,4796
2017-11-20T08:48:12.788Z,4780
2017-11-20T08:49:12.476Z,4908
2017-11-20T08:50:12.743Z,5140
2017-11-20T08:51:12.751Z,5224
2017-11-20T08:52:12.668Z,5332
2017-11-20T08:53:12.931Z,5464
2017-11-20T08:54:12.903Z,5492
2017-11-20T08:55:12.672Z,5444
2017-11-20T08:56:12.347Z,5596
2017-11-20T08:57:12.327Z,5660
2017-11-20T08:58:12.596Z,5840
2017-11-20T08:59:12.599Z,6004
2017-11-20T09:00:12.614Z,6244
2017-11-20T09:01:12.601Z,6036
2017-11-20T09:02:12.534Z,5688
2017-11-20T09:03:12.518Z,5660
2017-11-20T09:04:12.521Z,5736
2017-11-20T09:05:12.243Z,5668
2017-11-20T09:06:12.251Z,5408
2017-11-20T09:07:12.470Z,5348
2017-11-20T09:08:12.489Z,5252
2017-11-20T09:09:12.518Z,5136
2017-11-20T09:10:12.445Z,5312
2017-11-20T09:11:12.544Z,6544
2017-11-20T09:12:12.410Z,8052
2017-11-20T09:13:12.412Z,8124
2017-11-20T09:14:12.392Z,7196
2017-11-20T09:15:12.442Z,6080
2017-11-20T09:16:12.140Z,6232
2017-11-20T09:17:12.393Z,6496
2017-11-20T09:18:12.099Z,7016
2017-11-20T09:19:12.335Z,5836
2017-11-20T09:20:11.806Z,5588
2017-11-20T09:21:12.314Z,5688
2017-11-20T09:22:12.080Z,5516
2017-11-20T09:23:12.322Z,5148
2017-11-20T09:24:12.026Z,5264
2017-11-20T09:25:12.278Z,5080
2017-11-20T09:26:12.011Z,5316
2017-11-20T09:27:12.281Z,5608
2017-11-20T09:28:11.995Z,5964
2017-11-20T09:29:12.218Z,5696
2017-11-20T09:30:12.220Z,5356
2017-11-20T09:31:12.241Z,5396
2017-11-20T09:32:11.936Z,5748
2017-11-20T09:33:12.214Z,6248
2017-11-20T09:34:12.199Z,6000
2017-11-20T09:35:12.201Z,6480
2017-11-20T09:36:12.180Z,6848
2017-11-20T09:37:12.150Z,5904
2017-11-20T09:38:12.131Z,5316
2017-11-20T09:39:12.118Z,5524
2017-11-20T09:40:11.896Z,5408
2017-11-20T09:41:11.841Z,5380
2017-11-20T09:42:12.100Z,5244
2017-11-20T09:43:12.065Z,7256
2017-11-20T09:44:11.826Z,6860
2017-11-20T09:45:11.537Z,5840
2017-11-20T09:46:12.080Z,7060
2017-11-20T09:47:12.033Z,6180
2017-11-20T09:48:11.763Z,6920
2017-11-20T09:49:12.043Z,6568
2017-11-20T09:50:12.052Z,6116
2017-11-20T09:51:12.082Z,6492
2017-11-20T09:52:11.758Z,6032
2017-11-20T09:53:12.814Z,6096
2017-11-20T09:54:11.998Z,7492
2017-11-20T09:55:11.982Z,7384
2017-11-20T09:56:11.958Z,5840
2017-11-20T09:57:11.943Z,5336
2017-11-20T09:58:11.932Z,5776
2017-11-20T09:59:11.738Z,5644
2017-11-20T10:00:11.926Z,5152
2017-11-20T10:01:11.916Z,5024
2017-11-20T10:02:11.634Z,5040
2017-11-20T10:03:11.870Z,6524
2017-11-20T10:04:11.855Z,6012
2017-11-20T10:05:11.600Z,5116
2017-11-20T10:06:11.873Z,5052
2017-11-20T10:07:11.830Z,5456
2017-11-20T10:08:11.814Z,7568
2017-11-20T10:09:11.821Z,6720
2017-11-20T10:10:11.834Z,5348
2017-11-20T10:11:11.551Z,5240
2017-11-20T10:12:11.247Z,5296
2017-11-20T10:13:11.795Z,5260
2017-11-20T10:14:12.003Z,5012
2017-11-20T10:15:11.733Z,5244
2017-11-20T10:16:11.736Z,4968
2017-11-20T10:17:11.733Z,4736
2017-11-20T10:18:11.473Z,4596
2017-11-20T10:19:11.453Z,4400
2017-11-20T10:20:11.713Z,4440
2017-11-20T10:21:11.673Z,4404
2017-11-20T10:22:11.661Z,4604
2017-11-20T10:23:11.679Z,4644
2017-11-20T10:24:11.942Z,4664
2017-11-20T10:25:11.640Z,4824
2017-11-20T10:26:11.639Z,5124
2017-11-20T10:27:11.353Z,5416
2017-11-20T10:28:11.609Z,5556
2017-11-20T10:29:11.872Z,5008
2017-11-20T10:30:11.606Z,4848
2017-11-20T10:31:11.329Z,5012
2017-11-20T10:32:11.053Z,5880
2017-11-20T10:33:11.592Z,6180
2017-11-20T10:34:11.603Z,5032
2017-11-20T10:35:11.596Z,4652
2017-11-20T10:36:11.663Z,4644
2017-11-20T10:37:11.594Z,4680
2017-11-20T10:38:11.255Z,4524
2017-11-20T10:39:11.589Z,4352
2017-11-20T10:40:11.993Z,4412
2017-11-20T10:41:11.478Z,4368
2017-11-20T10:42:11.464Z,4372
2017-11-20T10:43:11.190Z,4512
2017-11-20T10:44:11.455Z,4616
2017-11-20T10:45:11.488Z,4868
2017-11-20T10:46:11.415Z,5192
2017-11-20T10:47:11.422Z,5188
2017-11-20T10:48:11.407Z,4788
2017-11-20T10:49:11.399Z,4856
2017-11-20T10:50:11.425Z,5508
2017-11-20T10:51:11.127Z,6496
2017-11-20T10:52:11.120Z,7692
2017-11-20T10:53:11.374Z,7680
2017-11-20T10:54:11.417Z,8468
2017-11-20T10:55:11.653Z,9464
2017-11-20T10:56:11.351Z,8764
2017-11-20T10:57:11.440Z,9264
2017-11-20T10:58:11.109Z,9712
2017-11-20T10:59:11.558Z,9372
2017-11-20T11:00:11.176Z,10532
2017-11-20T11:01:11.341Z,9004
2017-11-20T11:02:11.267Z,7912
2017-11-20T11:03:11.279Z,8280
2017-11-20T11:04:11.354Z,9064
2017-11-20T11:05:11.240Z,10988
2017-11-20T11:06:10.806Z,11800
2017-11-20T11:07:10.956Z,9784
2017-11-20T11:08:11.065Z,8216
2017-11-20T11:09:10.984Z,9332
2017-11-20T11:10:10.913Z,10052
2017-11-20T11:11:10.904Z,10112
2017-11-20T11:12:11.188Z,9784
2017-11-20T11:13:11.412Z,8584
2017-11-20T11:14:11.153Z,7568
2017-11-20T11:15:11.163Z,7924
2017-11-20T11:16:10.878Z,7504
2017-11-20T11:17:10.857Z,8548
2017-11-20T11:18:11.119Z,8728
2017-11-20T11:19:10.614Z,7896
2017-11-20T11:20:11.138Z,7340
2017-11-20T11:21:10.822Z,7720
2017-11-20T11:22:11.103Z,7536
2017-11-20T11:23:11.061Z,8128
2017-11-20T11:24:11.047Z,7944
2017-11-20T11:25:11.083Z,7832
2017-11-20T11:26:11.021Z,7896
2017-11-20T11:27:10.499Z,9072
2017-11-20T11:28:11.063Z,9488
2017-11-20T11:29:10.823Z,10080
2017-11-20T11:30:11.004Z,8964
2017-11-20T11:31:10.490Z,8264
2017-11-20T11:32:10.745Z,7588
2017-11-20T11:33:10.993Z,6860
2017-11-20T11:34:10.978Z,6336
2017-11-20T11:35:11.028Z,5812
2017-11-20T11:36:10.936Z,5432
2017-11-20T11:37:10.714Z,5616
2017-11-20T11:38:10.927Z,5360
2017-11-20T11:39:10.909Z,5140
2017-11-20T11:40:10.915Z,5128
2017-11-20T11:41:11.259Z,5356
2017-11-20T11:42:10.934Z,6060
2017-11-20T11:43:11.454Z,5640
2017-11-20T11:44:10.881Z,6080
2017-11-20T11:45:10.860Z,5860
2017-11-20T11:46:10.627Z,5724
2017-11-20T11:47:10.871Z,5220
2017-11-20T11:48:10.855Z,5412
2017-11-20T11:49:10.860Z,5868
2017-11-20T11:50:11.098Z,5704
2017-11-20T11:51:11.022Z,5116
2017-11-20T11:52:10.816Z,4768
2017-11-20T11:53:10.816Z,4520
2017-11-20T11:54:10.803Z,4600
2017-11-20T11:55:10.783Z,4544
2017-11-20T11:56:10.539Z,4376
2017-11-20T11:57:10.758Z,4564
2017-11-20T11:58:10.751Z,4648
2017-11-20T11:59:10.736Z,4488
2017-11-20T12:00:10.500Z,4052
2017-11-20T12:01:10.528Z,3844
2017-11-20T12:02:10.444Z,3460
2017-11-20T12:03:10.740Z,3008
2017-11-20T12:04:10.738Z,2728
2017-11-20T12:05:10.424Z,3084
2017-11-20T12:06:10.229Z,3464
2017-11-20T12:07:10.686Z,3676
2017-11-20T12:08:10.657Z,4512
2017-11-20T12:09:10.691Z,5464
2017-11-20T12:10:10.377Z,7064
2017-11-20T12:11:10.643Z,8920
2017-11-20T12:12:10.110Z,8948
2017-11-20T12:13:10.601Z,7384
2017-11-20T12:14:10.619Z,5824
2017-11-20T12:15:10.687Z,4924
2017-11-20T12:16:10.642Z,4772
2017-11-20T12:17:10.920Z,4660
2017-11-20T12:18:10.410Z,4204
2017-11-20T12:19:10.687Z,3896
2017-11-20T12:20:10.405Z,3664
2017-11-20T12:21:10.381Z,3504
2017-11-20T12:22:10.313Z,3488
2017-11-20T12:23:10.617Z,3444
2017-11-20T12:24:10.344Z,3044
2017-11-20T12:25:10.546Z,3040
2017-11-20T12:26:10.485Z,3096
2017-11-20T12:27:10.224Z,2948
2017-11-20T12:28:10.233Z,2864
2017-11-20T12:29:10.185Z,2608
2017-11-20T12:30:10.821Z,2568
2017-11-20T12:31:09.922Z,2424
2017-11-20T12:32:10.532Z,2408
2017-11-20T12:33:10.451Z,2868
2017-11-20T12:34:10.194Z,3264
2017-11-20T12:35:09.938Z,3136
2017-11-20T12:36:10.391Z,2640
2017-11-20T12:37:10.393Z,2648
2017-11-20T12:38:10.879Z,3500
2017-11-20T12:39:10.596Z,3880
2017-11-20T12:40:09.849Z,4208
2017-11-20T12:41:10.344Z,4168
2017-11-20T12:42:10.063Z,3020
2017-11-20T12:43:10.344Z,2136
2017-11-20T12:44:10.053Z,2080
2017-11-20T12:45:10.293Z,2608
2017-11-20T12:46:10.118Z,3284
2017-11-20T12:47:10.083Z,3708
2017-11-20T12:48:10.177Z,3588
2017-11-20T12:49:10.284Z,3228
2017-11-20T12:50:10.255Z,2532
2017-11-20T12:51:10.251Z,1940
2017-11-20T12:52:09.996Z,1756
2017-11-20T12:53:09.951Z,1812
2017-11-20T12:54:10.198Z,2156
2017-11-20T12:55:10.225Z,2564
2017-11-20T12:56:09.927Z,2288
2017-11-20T12:57:10.195Z,2036
2017-11-20T12:58:09.922Z,2232
2017-11-20T12:59:10.179Z,1988
2017-11-20T13:00:09.706Z,1540
2017-11-20T13:01:10.418Z,1344
2017-11-20T13:02:09.869Z,1388
2017-11-20T13:03:10.163Z,1196
2017-11-20T13:04:09.860Z,976
2017-11-20T13:05:10.090Z,808
2017-11-20T13:06:10.103Z,904
2017-11-20T13:07:09.823Z,1504
2017-11-20T13:08:10.085Z,2364
2017-11-20T13:09:09.794Z,2648
2017-11-20T13:10:09.794Z,2984
2017-11-20T13:11:09.805Z,3140
2017-11-20T13:12:10.034Z,2808
2017-11-20T13:13:10.028Z,2588
2017-11-20T13:14:09.779Z,2948
2017-11-20T13:15:10.340Z,3388
2017-11-20T13:16:09.745Z,3332
2017-11-20T13:17:09.968Z,3080
2017-11-20T13:18:09.445Z,2696
2017-11-20T13:19:09.978Z,2780
2017-11-20T13:20:09.954Z,3240
2017-11-20T13:21:09.689Z,3520
2017-11-20T13:22:09.929Z,3644
2017-11-20T13:23:09.651Z,3848
2017-11-20T13:24:09.654Z,4060
2017-11-20T13:25:09.637Z,4240
2017-11-20T13:26:09.122Z,4336
2017-11-20T13:27:09.619Z,4240
2017-11-20T13:28:09.874Z,4088
2017-11-20T13:29:09.903Z,3960
2017-11-20T13:30:09.891Z,3916
2017-11-20T13:31:10.322Z,3924
2017-11-20T13:32:09.583Z,3908
2017-11-20T13:33:09.862Z,4024
2017-11-20T13:34:09.784Z,4180
2017-11-20T13:35:09.800Z,4296
2017-11-20T13:36:09.590Z,4368
2017-11-20T13:37:09.811Z,4236
2017-11-20T13:38:09.558Z,3384
2017-11-20T13:39:09.512Z,3160
2017-11-20T13:40:09.744Z,3384
2017-11-20T13:41:09.781Z,3484
2017-11-20T13:42:09.507Z,3772
2017-11-20T13:43:09.746Z,4100
2017-11-20T13:44:09.771Z,4144
2017-11-20T13:45:09.507Z,4028
2017-11-20T13:46:09.789Z,3860
2017-11-20T13:47:09.775Z,3684
2017-11-20T13:48:09.448Z,3528
2017-11-20T13:49:09.698Z,3380
2017-11-20T13:50:09.493Z,3276
2017-11-20T13:51:09.654Z,3228
2017-11-20T13:52:09.696Z,3232
2017-11-20T13:53:09.378Z,3280
2017-11-20T13:54:09.355Z,3316
2017-11-20T13:55:09.335Z,3180
2017-11-20T13:56:09.381Z,3024
2017-11-20T13:57:09.596Z,3032